Time;durP1;ratioP1;P1;durP2;ratioP2;P2;SDS_P1;SDS_P2;PMS_P1;PMS_P2;Temp;Humidity;BMP_temperature;BMP_pressure;BME280_temperature;BME280_humidity;BME280_pressure;Samples;Min_cycle;Max_cycle;Signal;HPM_P1;HPM_P2
2024/04/28 00:00:26;;;;;;;14.52;7.03;;;332.90;2278.40;;;;;;5473275;26;20010;-76
2024/04/28 00:02:52;;;;;;;12.30;6.80;;;332.80;2278.40;;;;;;5457282;26;19994;-75
2024/04/28 00:05:17;;;;;;;12.20;6.70;;;332.90;2278.40;;;;;;5465137;26;20002;-75
2024/04/28 00:07:43;;;;;;;11.82;6.47;;;332.90;2304.00;;;;;;5470296;26;19998;-75
2024/04/28 00:10:09;;;;;;;12.85;6.53;;;332.90;2304.00;;;;;;5475329;26;20016;-75
2024/04/28 00:12:35;;;;;;;13.25;6.25;;;332.90;2278.40;;;;;;5477591;26;20020;-75
2024/04/28 00:15:04;;;;;;;12.55;6.80;;;332.80;2329.60;;;;;;5469432;26;20066;-75
2024/04/28 00:17:32;;;;;;;10.73;5.97;;;332.90;2329.60;;;;;;5475230;26;19998;-75
2024/04/28 00:19:58;;;;;;;12.95;6.25;;;332.90;2329.60;;;;;;5473103;26;20009;-75
2024/04/28 00:22:24;;;;;;;11.10;6.45;;;332.80;2329.60;;;;;;5469122;26;20445;-75
2024/04/28 00:24:50;;;;;;;13.35;6.25;;;332.80;2329.60;;;;;;5470098;26;20338;-75
2024/04/28 00:27:15;;;;;;;10.90;6.00;;;332.80;2329.60;;;;;;5474577;26;20013;-75
2024/04/28 00:29:41;;;;;;;12.98;6.20;;;332.80;2329.60;;;;;;5464536;26;20074;-75
2024/04/28 00:32:07;;;;;;;13.75;6.22;;;308.10;2304.00;;;;;;5475861;26;20006;-75
2024/04/28 00:34:33;;;;;;;9.15;5.68;;;308.10;2304.00;;;;;;5471318;26;20469;-75
2024/04/28 00:36:59;;;;;;;12.32;6.15;;;332.80;2329.60;;;;;;5458141;26;20116;-75
2024/04/28 00:39:26;;;;;;;14.45;6.30;;;308.10;2304.00;;;;;;5464887;26;20003;-75
2024/04/28 00:41:52;;;;;;;13.45;6.47;;;308.10;2304.00;;;;;;5465992;26;20007;-75
2024/04/28 00:44:17;;;;;;;14.10;6.32;;;308.00;2304.00;;;;;;5473260;26;20008;-75
2024/04/28 00:46:44;;;;;;;12.85;6.47;;;308.00;2304.00;;;;;;5463606;26;19998;-75
2024/04/28 00:49:10;;;;;;;11.70;6.28;;;308.00;2304.00;;;;;;5467489;26;20002;-75
2024/04/28 00:51:36;;;;;;;12.98;6.65;;;308.00;2304.00;;;;;;5464419;26;20012;-74
2024/04/28 00:54:07;;;;;;;15.52;6.90;;;307.90;2304.00;;;;;;5467043;26;19999;-74
2024/04/28 00:56:33;;;;;;;14.52;7.07;;;307.90;2304.00;;;;;;5479422;26;20017;-76
2024/04/28 00:58:59;;;;;;;15.98;7.47;;;307.90;2304.00;;;;;;5489201;26;20001;-76
2024/04/28 01:01:25;;;;;;;15.45;6.72;;;307.80;2304.00;;;;;;5473072;26;19998;-74
2024/04/28 01:03:50;;;;;;;11.38;6.60;;;307.80;2304.00;;;;;;5475688;26;20009;-75
2024/04/28 01:06:16;;;;;;;13.57;6.82;;;307.80;2304.00;;;;;;5475680;26;20079;-74
2024/04/28 01:08:42;;;;;;;15.05;7.15;;;307.80;2304.00;;;;;;5463141;26;20038;-74
2024/04/28 01:11:08;;;;;;;14.15;7.15;;;307.80;2304.00;;;;;;5465091;26;20018;-74
2024/04/28 01:13:33;;;;;;;13.30;7.60;;;307.80;2304.00;;;;;;5453271;26;19999;-75
2024/04/28 01:15:59;;;;;;;14.32;7.45;;;307.70;2304.00;;;;;;5423579;26;20006;-75
2024/04/28 01:18:25;;;;;;;13.38;7.15;;;307.70;2304.00;;;;;;5466586;26;19999;-74
2024/04/28 01:20:57;;;;;;;12.77;7.80;;;307.60;2304.00;;;;;;5472929;26;20006;-75
2024/04/28 01:23:23;;;;;;;13.98;7.63;;;307.60;2304.00;;;;;;5461311;26;20013;-75
2024/04/28 01:25:49;;;;;;;16.02;7.38;;;307.70;2304.00;;;;;;5469533;26;20003;-74
2024/04/28 01:28:16;;;;;;;13.18;7.43;;;307.70;2304.00;;;;;;5462035;26;20038;-74
2024/04/28 01:30:41;;;;;;;13.45;7.07;;;307.60;2304.00;;;;;;5465975;26;20105;-74
2024/04/28 01:33:07;;;;;;;13.07;7.50;;;307.60;2304.00;;;;;;5469896;26;19998;-74
2024/04/28 01:35:33;;;;;;;13.45;7.15;;;307.60;2304.00;;;;;;5468339;26;19999;-74
2024/04/28 01:37:59;;;;;;;13.00;7.15;;;307.60;2304.00;;;;;;5473878;26;20006;-74
2024/04/28 01:40:24;;;;;;;13.65;7.30;;;307.60;2304.00;;;;;;5442744;26;20437;-75
2024/04/28 01:42:50;;;;;;;16.05;7.20;;;307.60;2304.00;;;;;;5457655;26;20010;-74
2024/04/28 01:45:16;;;;;;;12.10;6.93;;;307.50;2304.00;;;;;;5461368;26;20067;-74
2024/04/28 01:47:42;;;;;;;14.50;7.68;;;307.50;2304.00;;;;;;5466191;26;20048;-74
2024/04/28 01:50:07;;;;;;;13.57;7.93;;;307.40;2304.00;;;;;;5441825;26;20345;-75
2024/04/28 01:52:33;;;;;;;16.02;7.40;;;307.40;2304.00;;;;;;5471970;26;20006;-74
2024/04/28 01:54:59;;;;;;;15.43;7.35;;;307.30;2304.00;;;;;;5469084;26;20445;-74
2024/04/28 01:57:25;;;;;;;13.73;7.03;;;307.20;2304.00;;;;;;5467259;26;20012;-74
2024/04/28 01:59:50;;;;;;;16.67;7.45;;;307.20;2304.00;;;;;;5467384;26;20013;-73
2024/04/28 02:02:16;;;;;;;12.00;6.90;;;307.20;2304.00;;;;;;5471663;26;20652;-75
2024/04/28 02:04:42;;;;;;;12.63;7.10;;;307.20;2304.00;;;;;;5462981;26;20083;-74
2024/04/28 02:07:07;;;;;;;15.15;7.50;;;307.20;2304.00;;;;;;5476290;26;19998;-75
2024/04/28 02:09:33;;;;;;;10.63;7.00;;;307.20;2304.00;;;;;;5476059;26;19995;-74
2024/04/28 02:11:58;;;;;;;15.85;7.90;;;307.20;2304.00;;;;;;5466670;26;19999;-74
2024/04/28 02:14:24;;;;;;;12.95;7.47;;;307.20;2304.00;;;;;;5470502;26;19999;-73
2024/04/28 02:16:50;;;;;;;12.75;7.15;;;307.20;2304.00;;;;;;5461105;26;20031;-74
2024/04/28 02:19:16;;;;;;;15.35;7.30;;;282.40;2278.40;;;;;;5460998;26;19999;-74
2024/04/28 02:21:42;;;;;;;14.82;7.50;;;282.40;2278.40;;;;;;5461628;26;20079;-74
2024/04/28 02:24:07;;;;;;;13.90;7.28;;;282.30;2278.40;;;;;;5463166;26;20014;-74
2024/04/28 02:26:33;;;;;;;14.75;7.45;;;282.30;2278.40;;;;;;5462864;26;20079;-74
2024/04/28 02:28:59;;;;;;;14.02;7.65;;;282.20;2278.40;;;;;;5471367;26;20010;-74
2024/04/28 02:31:24;;;;;;;10.85;7.20;;;282.10;2278.40;;;;;;5463799;26;20318;-75
2024/04/28 02:33:50;;;;;;;16.73;7.88;;;282.10;2278.40;;;;;;5466161;26;20013;-74
2024/04/28 02:36:17;;;;;;;13.75;7.45;;;282.10;2278.40;;;;;;5483678;26;20358;-75
2024/04/28 02:38:42;;;;;;;14.38;7.57;;;282.10;2278.40;;;;;;5488127;26;20497;-74
2024/04/28 02:41:09;;;;;;;17.17;7.75;;;282.10;2278.40;;;;;;5488037;26;20010;-74
2024/04/28 02:43:34;;;;;;;15.57;7.88;;;282.10;2278.40;;;;;;5488172;26;19994;-74
2024/04/28 02:48:59;;;;;;;19.58;7.97;;;282.00;2278.40;;;;;;5454027;26;20075;-74
2024/04/28 02:51:25;;;;;;;19.60;8.10;;;282.10;2278.40;;;;;;5461974;26;19998;-74
2024/04/28 02:53:51;;;;;;;13.98;7.55;;;282.00;2278.40;;;;;;5467881;26;20006;-75
2024/04/28 02:56:17;;;;;;;15.98;8.00;;;282.00;2278.40;;;;;;5466839;26;20796;-75
2024/04/28 02:58:43;;;;;;;11.80;7.80;;;282.00;2278.40;;;;;;5474670;26;20026;-75
2024/04/28 03:01:08;;;;;;;13.60;8.18;;;281.90;2278.40;;;;;;5461476;26;20002;-74
2024/04/28 03:03:34;;;;;;;14.82;8.32;;;281.90;2278.40;;;;;;5459818;26;19997;-74
2024/04/28 03:06:00;;;;;;;14.40;8.80;;;281.80;2278.40;;;;;;5468983;26;19998;-74
2024/04/28 03:08:26;;;;;;;14.93;8.55;;;281.80;2278.40;;;;;;5470822;26;20436;-74
2024/04/28 03:10:52;;;;;;;14.23;8.75;;;281.80;2278.40;;;;;;5461651;26;20841;-74
2024/04/28 03:13:18;;;;;;;15.07;8.73;;;281.80;2278.40;;;;;;5466677;26;20009;-74
2024/04/28 03:15:44;;;;;;;17.38;8.38;;;281.70;2278.40;;;;;;5464741;26;20001;-73
2024/04/28 03:18:12;;;;;;;14.65;9.18;;;281.70;2278.40;;;;;;5472099;26;20001;-74
2024/04/28 03:20:37;;;;;;;16.35;8.90;;;281.70;2278.40;;;;;;5462965;26;19995;-74
2024/04/28 03:23:04;;;;;;;15.70;9.40;;;281.70;2278.40;;;;;;5471789;26;20009;-74
2024/04/28 03:25:29;;;;;;;15.98;9.25;;;281.60;2278.40;;;;;;5471881;26;19998;-73
2024/04/28 03:27:55;;;;;;;14.75;9.23;;;281.60;2278.40;;;;;;5430480;26;20003;-74
2024/04/28 03:30:21;;;;;;;16.40;9.48;;;281.60;2278.40;;;;;;5471218;26;20362;-74
2024/04/28 03:32:46;;;;;;;13.80;9.30;;;281.60;2278.40;;;;;;5466024;26;20010;-74
2024/04/28 03:35:12;;;;;;;15.70;9.32;;;281.70;2278.40;;;;;;5457448;26;20529;-74
2024/04/28 03:37:38;;;;;;;15.90;9.50;;;281.60;2278.40;;;;;;5467690;26;20003;-75
2024/04/28 03:40:04;;;;;;;13.35;8.95;;;281.70;2278.40;;;;;;5470767;26;19998;-74
2024/04/28 03:42:30;;;;;;;13.50;9.07;;;281.60;2278.40;;;;;;5472046;26;21816;-74
2024/04/28 03:44:55;;;;;;;15.60;9.77;;;281.60;2278.40;;;;;;5476556;26;19998;-74
2024/04/28 03:47:21;;;;;;;15.73;9.57;;;281.60;2278.40;;;;;;5443454;26;20382;-75
2024/04/28 03:49:47;;;;;;;16.83;9.40;;;281.60;2278.40;;;;;;5471468;26;20333;-74
2024/04/28 03:52:13;;;;;;;15.18;9.60;;;281.70;2278.40;;;;;;5461953;26;20003;-74
2024/04/28 03:54:38;;;;;;;13.52;9.02;;;281.70;2278.40;;;;;;5474979;26;20108;-75
2024/04/28 03:57:04;;;;;;;14.23;9.27;;;281.70;2278.40;;;;;;5471902;26;20003;-74
2024/04/28 03:59:30;;;;;;;15.02;9.15;;;281.70;2278.40;;;;;;5470383;26;20110;-74
2024/04/28 04:01:55;;;;;;;15.05;9.38;;;281.70;2278.40;;;;;;5476840;26;20010;-74
2024/04/28 04:04:21;;;;;;;14.32;10.00;;;281.70;2278.40;;;;;;5477652;26;20013;-74
2024/04/28 04:06:47;;;;;;;19.27;10.15;;;281.70;2278.40;;;;;;5476522;26;20024;-74
2024/04/28 04:09:13;;;;;;;14.95;9.52;;;281.60;2278.40;;;;;;5463404;26;20027;-74
2024/04/28 04:11:39;;;;;;;16.45;10.02;;;281.60;2278.40;;;;;;5477251;26;19999;-74
2024/04/28 04:14:04;;;;;;;15.75;10.60;;;281.70;2278.40;;;;;;5468905;26;20006;-74
2024/04/28 04:16:30;;;;;;;15.82;10.18;;;281.70;2278.40;;;;;;5465638;26;20084;-74
2024/04/28 04:18:56;;;;;;;14.10;10.00;;;281.70;2278.40;;;;;;5470485;26;19998;-74
2024/04/28 04:21:21;;;;;;;19.30;10.35;;;281.70;2278.40;;;;;;5475439;26;20018;-74
2024/04/28 04:23:47;;;;;;;15.18;9.88;;;281.70;2278.40;;;;;;5466826;26;20010;-75
2024/04/28 04:26:13;;;;;;;13.23;9.57;;;281.60;2278.40;;;;;;5471655;26;20026;-74
2024/04/28 04:28:38;;;;;;;15.23;9.60;;;281.70;2278.40;;;;;;5470036;26;20048;-74
2024/04/28 04:31:04;;;;;;;15.25;10.10;;;281.70;2278.40;;;;;;5467656;26;20070;-75
2024/04/28 04:33:31;;;;;;;18.17;10.27;;;281.80;2278.40;;;;;;5475683;26;19999;-74
2024/04/28 04:35:57;;;;;;;17.20;10.43;;;281.90;2278.40;;;;;;5487166;26;20009;-74
2024/04/28 04:38:23;;;;;;;16.25;10.45;;;281.90;2278.40;;;;;;5490242;26;19998;-74
2024/04/28 04:40:48;;;;;;;14.95;10.00;;;281.90;2278.40;;;;;;5479250;26;20643;-74
2024/04/28 04:43:14;;;;;;;16.33;10.68;;;281.80;2278.40;;;;;;5453481;26;20034;-75
2024/04/28 04:45:39;;;;;;;19.00;11.00;;;281.80;2278.40;;;;;;5455467;26;19999;-74
2024/04/28 04:48:06;;;;;;;18.95;11.20;;;281.80;2278.40;;;;;;5454055;26;19999;-74
2024/04/28 04:50:31;;;;;;;17.40;10.93;;;281.80;2278.40;;;;;;5454030;26;20027;-74
2024/04/28 04:52:57;;;;;;;16.38;10.88;;;281.90;2278.40;;;;;;5452421;26;20322;-75
2024/04/28 04:55:24;;;;;;;16.95;10.95;;;282.00;2278.40;;;;;;5470072;26;19998;-74
2024/04/28 04:57:51;;;;;;;16.38;10.35;;;282.00;2278.40;;;;;;5468388;26;20821;-75
2024/04/28 05:00:17;;;;;;;15.45;10.65;;;282.20;2278.40;;;;;;5463475;26;20002;-74
2024/04/28 05:02:42;;;;;;;15.88;10.40;;;282.20;2278.40;;;;;;5490285;26;19994;-75
2024/04/28 05:05:08;;;;;;;16.58;10.75;;;282.20;2278.40;;;;;;5476530;26;20030;-74
2024/04/28 05:07:34;;;;;;;15.93;10.93;;;282.30;2278.40;;;;;;5490123;26;20006;-75
2024/04/28 05:09:59;;;;;;;18.00;11.55;;;282.30;2278.40;;;;;;5489718;26;20007;-75
2024/04/28 05:12:25;;;;;;;15.57;11.00;;;282.40;2278.40;;;;;;5490103;26;19989;-75
2024/04/28 05:14:51;;;;;;;16.92;11.02;;;282.50;2278.40;;;;;;5439340;26;20007;-75
2024/04/28 05:17:17;;;;;;;15.43;10.75;;;307.20;2304.00;;;;;;5453709;26;20009;-75
2024/04/28 05:19:42;;;;;;;17.45;11.32;;;307.30;2304.00;;;;;;5453696;26;19999;-74
2024/04/28 05:22:08;;;;;;;16.33;10.48;;;307.30;2304.00;;;;;;5453233;26;20013;-75
2024/04/28 05:24:34;;;;;;;18.83;11.95;;;307.50;2304.00;;;;;;5452782;26;20551;-74
2024/04/28 05:27:00;;;;;;;18.50;11.63;;;307.60;2304.00;;;;;;5452881;26;19994;-74
2024/04/28 05:29:25;;;;;;;16.35;10.88;;;307.80;2304.00;;;;;;5453317;26;20007;-74
2024/04/28 05:31:51;;;;;;;15.85;10.43;;;307.90;2304.00;;;;;;5470987;26;20002;-75
2024/04/28 05:34:16;;;;;;;16.15;10.48;;;308.00;2304.00;;;;;;5489289;26;20008;-75
2024/04/28 05:36:42;;;;;;;14.95;10.10;;;332.80;2329.60;;;;;;5477866;26;20002;-74
2024/04/28 05:39:08;;;;;;;14.07;10.10;;;332.90;2329.60;;;;;;5490925;26;20005;-75
2024/04/28 05:41:33;;;;;;;15.20;10.57;;;333.00;2329.60;;;;;;5490485;26;20018;-75
2024/04/28 05:43:59;;;;;;;14.55;10.88;;;333.20;2329.60;;;;;;5487911;26;19995;-75
2024/04/28 05:46:25;;;;;;;19.35;10.30;;;333.30;2329.60;;;;;;5490250;26;20010;-75
2024/04/28 05:48:50;;;;;;;16.73;10.15;;;333.50;2329.60;;;;;;5489040;26;19995;-76
2024/04/28 05:51:16;;;;;;;20.58;13.02;;;358.40;2329.60;;;;;;5489519;26;20005;-75
2024/04/28 05:53:42;;;;;;;15.98;10.93;;;333.70;2329.60;;;;;;5461609;26;20009;-76
2024/04/28 05:56:08;;;;;;;15.48;9.93;;;358.50;2329.60;;;;;;5453292;26;20326;-74
2024/04/28 05:58:35;;;;;;;21.73;10.15;;;358.60;2329.60;;;;;;5452300;26;20355;-76
2024/04/28 06:01:01;;;;;;;15.68;9.45;;;358.70;2329.60;;;;;;5452305;26;20006;-75
2024/04/28 06:03:26;;;;;;;14.63;9.32;;;358.90;2329.60;;;;;;5454003;26;19994;-75
2024/04/28 06:05:52;;;;;;;13.68;9.77;;;359.00;2329.60;;;;;;5452536;26;20623;-74
2024/04/28 06:08:18;;;;;;;17.30;11.80;;;359.10;2329.60;;;;;;5452653;26;20042;-74
2024/04/28 06:10:43;;;;;;;15.30;9.57;;;359.30;2329.60;;;;;;5471167;26;20006;-75
2024/04/28 06:13:10;;;;;;;12.93;9.27;;;;;;;;;;5486943;26;19998;-74
2024/04/28 06:15:35;;;;;;;12.68;8.65;;;384.60;2329.60;;;;;;5490572;26;20489;-76
2024/04/28 06:18:01;;;;;;;20.05;11.73;;;384.60;2329.60;;;;;;5493041;26;20014;-75
2024/04/28 06:20:27;;;;;;;20.13;14.55;;;384.90;2329.60;;;;;;5492336;26;20349;-76
2024/04/28 06:22:52;;;;;;;17.45;11.20;;;409.60;2355.20;;;;;;5472338;26;19999;-77
2024/04/28 06:25:18;;;;;;;13.13;8.73;;;409.90;2355.20;;;;;;5452513;26;19991;-78
2024/04/28 06:27:44;;;;;;;10.68;7.05;;;409.90;2355.20;;;;;;5451669;26;20468;-77
2024/04/28 06:30:10;;;;;;;12.13;7.82;;;410.30;2355.20;;;;;;5453254;26;20013;-78
2024/04/28 06:32:36;;;;;;;12.95;6.57;;;410.50;2355.20;;;;;;5476777;26;20001;-77
2024/04/28 06:35:02;;;;;;;10.52;6.38;;;435.70;2355.20;;;;;;5526390;26;20004;-77
2024/04/28 06:37:27;;;;;;;9.07;6.45;;;435.50;2355.20;;;;;;5500823;26;20087;-76
2024/04/28 06:39:53;;;;;;;9.57;6.40;;;435.40;2355.20;;;;;;5454664;26;20381;-76
2024/04/28 06:42:19;;;;;;;9.77;5.95;;;435.50;2355.20;;;;;;5474628;26;20087;-75
2024/04/28 06:44:45;;;;;;;9.43;6.07;;;435.90;2355.20;;;;;;5489386;26;19994;-78
2024/04/28 06:47:11;;;;;;;8.80;5.68;;;436.00;2355.20;;;;;;5490148;26;19994;-78
2024/04/28 06:49:37;;;;;;;9.27;5.55;;;460.90;2380.80;;;;;;5490275;26;20039;-77
2024/04/28 06:52:03;;;;;;;8.70;5.47;;;460.80;2380.80;;;;;;5488688;26;20009;-78
2024/04/28 06:54:28;;;;;;;7.13;4.88;;;460.90;2380.80;;;;;;5472171;26;19999;-78
2024/04/28 06:56:54;;;;;;;10.18;7.75;;;461.10;2380.80;;;;;;5457735;26;20012;-78
2024/04/28 06:59:20;;;;;;;8.15;5.32;;;;;;;;;;5487073;26;20009;-78
2024/04/28 07:01:46;;;;;;;6.95;4.75;;;486.40;2304.00;;;;;;5487960;26;20497;-77
2024/04/28 07:04:12;;;;;;;6.95;4.75;;;486.60;2278.40;;;;;;5467261;26;20002;-78
2024/04/28 07:06:37;;;;;;;6.50;4.65;;;486.70;2227.20;;;;;;5472113;26;19998;-77
2024/04/28 07:09:03;;;;;;;6.18;4.50;;;486.60;2227.20;;;;;;5485190;26;20002;-76
2024/04/28 07:11:29;;;;;;;5.28;3.78;;;487.00;2150.40;;;;;;5457030;26;20010;-76
2024/04/28 07:13:55;;;;;;;9.43;4.25;;;486.90;2124.80;;;;;;5479392;26;19998;-77
2024/04/28 07:16:20;;;;;;;7.55;5.25;;;487.20;2099.20;;;;;;5486670;26;19990;-76
2024/04/28 07:18:46;;;;;;;8.05;5.10;;;487.20;2099.20;;;;;;5486751;26;19998;-77
2024/04/28 07:21:12;;;;;;;5.93;4.43;;;487.20;2099.20;;;;;;5487667;26;20002;-77
2024/04/28 07:23:37;;;;;;;11.27;8.00;;;512.00;2073.60;;;;;;5487882;26;20021;-76
2024/04/28 07:26:03;;;;;;;6.97;4.25;;;512.00;2048.00;;;;;;5481647;26;19995;-76
2024/04/28 07:28:29;;;;;;;6.28;3.50;;;512.30;2022.40;;;;;;5458891;26;20075;-76
2024/04/28 07:30:54;;;;;;;7.45;4.10;;;512.50;1971.20;;;;;;5450914;26;20721;-76
2024/04/28 07:33:20;;;;;;;8.63;4.57;;;512.70;1945.60;;;;;;5451132;26;20450;-76
2024/04/28 07:35:46;;;;;;;6.80;3.80;;;512.90;1971.20;;;;;;5451079;26;19998;-77
2024/04/28 07:38:13;;;;;;;6.00;3.60;;;537.80;1920.00;;;;;;5461799;26;20002;-76
2024/04/28 07:40:39;;;;;;;6.00;3.85;;;537.70;1894.40;;;;;;5492076;26;20001;-76
2024/04/28 07:43:06;;;;;;;7.53;3.90;;;537.90;1894.40;;;;;;5524617;26;19997;-76
2024/04/28 07:45:33;;;;;;;6.03;4.43;;;538.00;1868.80;;;;;;5505641;26;20010;-76
2024/04/28 07:48:01;;;;;;;5.15;3.65;;;538.40;1971.20;;;;;;5488248;26;20433;-77
2024/04/28 07:50:26;;;;;;;4.38;3.80;;;538.10;1868.80;;;;;;5487791;26;20018;-77
2024/04/28 07:52:52;;;;;;;4.57;3.50;;;538.50;1817.60;;;;;;5487434;26;19998;-76
2024/04/28 07:55:18;;;;;;;6.05;4.00;;;538.40;1843.20;;;;;;5468969;26;20017;-76
2024/04/28 07:57:43;;;;;;;11.20;6.60;;;563.40;1843.20;;;;;;5486554;26;19994;-76
2024/04/28 08:00:11;;;;;;;5.53;3.72;;;563.30;1843.20;;;;;;5485553;26;19998;-76
2024/04/28 08:02:37;;;;;;;6.40;3.60;;;563.40;1817.60;;;;;;5463579;26;20352;-76
2024/04/28 08:05:03;;;;;;;5.72;3.92;;;;;;;;;;5450406;26;20017;-76
2024/04/28 08:07:29;;;;;;;6.05;3.50;;;563.70;1766.40;;;;;;5451054;26;20005;-76
2024/04/28 08:09:55;;;;;;;7.03;4.00;;;563.60;1766.40;;;;;;5450546;26;19991;-76
2024/04/28 08:12:21;;;;;;;5.97;3.80;;;564.10;1766.40;;;;;;5450388;26;20002;-76
2024/04/28 08:14:48;;;;;;;5.95;3.90;;;564.00;1766.40;;;;;;5449861;26;19998;-76
2024/04/28 08:17:14;;;;;;;4.57;3.78;;;563.90;1740.80;;;;;;5449432;26;19998;-76
2024/04/28 08:19:39;;;;;;;7.90;3.70;;;564.10;1740.80;;;;;;5486554;26;19994;-76
2024/04/28 08:22:05;;;;;;;6.78;3.95;;;564.00;1740.80;;;;;;5486420;26;20087;-76
2024/04/28 08:24:31;;;;;;;4.55;3.67;;;588.90;1715.20;;;;;;5464416;26;20003;-75
2024/04/28 08:26:57;;;;;;;6.47;3.97;;;564.10;1715.20;;;;;;5520630;26;20325;-76
2024/04/28 08:29:22;;;;;;;5.07;3.45;;;588.90;1689.60;;;;;;5521448;26;20009;-75
2024/04/28 08:31:48;;;;;;;9.35;4.80;;;589.00;1689.60;;;;;;5526267;26;19994;-76
2024/04/28 08:34:14;;;;;;;4.90;4.00;;;588.80;1715.20;;;;;;5482485;26;20353;-76
2024/04/28 08:36:40;;;;;;;6.60;4.10;;;589.00;1689.60;;;;;;5456542;26;20007;-76
2024/04/28 08:39:05;;;;;;;8.07;3.83;;;589.20;1689.60;;;;;;5475155;26;20002;-75
2024/04/28 08:41:32;;;;;;;5.65;4.10;;;589.60;1664.00;;;;;;5477958;26;19998;-76
2024/04/28 08:43:59;;;;;;;6.30;4.15;;;589.50;1664.00;;;;;;5472930;26;20517;-77
2024/04/28 08:46:25;;;;;;;6.78;4.10;;;614.40;1715.20;;;;;;5513054;26;20470;-76
2024/04/28 08:48:52;;;;;;;4.97;3.90;;;614.40;1715.20;;;;;;5531115;26;20001;-77
2024/04/28 08:51:22;;;;;;;5.32;3.70;;;;;;;;;;5493769;26;20047;-77
2024/04/28 08:53:49;;;;;;;5.05;3.72;;;614.80;1638.40;;;;;;5464810;26;20064;-77
2024/04/28 08:56:17;;;;;;;7.20;3.60;;;614.80;1664.00;;;;;;5482566;26;19998;-76
2024/04/28 08:58:44;;;;;;;6.40;3.60;;;614.70;1638.40;;;;;;5462001;26;20329;-77
2024/04/28 09:01:10;;;;;;;5.30;3.63;;;615.00;1612.80;;;;;;5489038;26;20013;-77
2024/04/28 09:03:37;;;;;;;6.60;3.95;;;615.00;1587.20;;;;;;5486146;26;20111;-76
2024/04/28 09:06:17;;;;;;;7.00;3.72;;;615.00;1612.80;;;;;;5472510;26;20018;-77
2024/04/28 09:08:46;;;;;;;6.53;3.60;;;615.10;1561.60;;;;;;5474807;26;19999;-76
2024/04/28 09:11:23;;;;;;;7.63;4.25;;;615.00;1561.60;;;;;;5473871;26;19998;-75
2024/04/28 09:13:49;;;;;;;5.25;4.10;;;615.20;1536.00;;;;;;5480361;26;20850;-74
2024/04/28 09:16:15;;;;;;;6.78;3.95;;;;;;;;;;5491681;26;20002;-76
2024/04/28 09:18:41;;;;;;;4.60;3.50;;;;;;;;;;5479208;26;20002;-74
2024/04/28 09:21:07;;;;;;;5.30;3.30;;;;;;;;;;5521338;26;20076;-76
2024/04/28 09:23:33;;;;;;;7.65;3.78;;;666.10;1536.00;;;;;;5490683;26;20009;-76
2024/04/28 09:26:08;;;;;;;5.28;3.25;;;666.10;1510.40;;;;;;5485753;26;20006;-73
2024/04/28 09:28:34;;;;;;;5.30;3.20;;;665.80;1433.60;;;;;;5488408;26;20054;-76
2024/04/28 09:31:01;;;;;;;6.60;3.55;;;665.80;1433.60;;;;;;5477481;26;19998;-73
2024/04/28 09:33:27;;;;;;;3.78;2.80;;;666.10;1484.80;;;;;;5460978;26;20027;-75
2024/04/28 09:35:56;;;;;;;5.82;3.40;;;666.20;1433.60;;;;;;5488889;26;20022;-73
2024/04/28 09:38:29;;;;;;;5.80;3.20;;;665.80;1459.20;;;;;;5487657;26;20010;-75
2024/04/28 09:40:55;;;;;;;3.97;2.88;;;665.90;1459.20;;;;;;5480098;26;19998;-75
2024/04/28 09:43:22;;;;;;;5.72;3.25;;;665.90;1459.20;;;;;;5490879;26;20047;-76
2024/04/28 09:45:53;;;;;;;5.38;2.95;;;665.80;1484.80;;;;;;5489364;26;20002;-76
2024/04/28 09:48:19;;;;;;;5.30;3.35;;;665.90;1459.20;;;;;;5488761;26;20005;-76
2024/04/28 09:50:47;;;;;;;4.57;3.03;;;665.90;1459.20;;;;;;5489408;26;20360;-76
2024/04/28 09:53:13;;;;;;;4.35;3.00;;;665.90;1459.20;;;;;;5464458;26;19994;-75
2024/04/28 09:55:39;;;;;;;5.20;3.08;;;666.00;1433.60;;;;;;5453334;26;19995;-76
2024/04/28 09:58:06;;;;;;;4.57;2.88;;;691.20;1408.00;;;;;;5452896;26;20021;-76
2024/04/28 10:00:33;;;;;;;7.28;2.90;;;666.30;1408.00;;;;;;5455587;26;20510;-76
2024/04/28 10:03:05;;;;;;;8.73;3.80;;;666.40;1408.00;;;;;;5455537;26;20319;-76
2024/04/28 10:05:34;;;;;;;4.95;2.83;;;666.10;1408.00;;;;;;5422553;26;20329;-76
2024/04/28 10:08:02;;;;;;;6.13;4.07;;;691.50;1382.40;;;;;;5474965;26;20005;-76
2024/04/28 10:10:28;;;;;;;6.00;3.88;;;691.20;1382.40;;;;;;5454850;26;20009;-76
2024/04/28 10:13:09;;;;;;;6.88;4.50;;;666.20;1408.00;;;;;;5466093;26;20391;-76
2024/04/28 10:15:35;;;;;;;4.35;3.13;;;666.10;1408.00;;;;;;5459554;26;20461;-77
2024/04/28 10:18:13;;;;;;;4.65;3.00;;;666.50;1382.40;;;;;;5456708;26;19995;-77
2024/04/28 10:20:40;;;;;;;5.78;3.17;;;691.60;1433.60;;;;;;5470571;26;20519;-77
2024/04/28 10:23:06;;;;;;;5.80;3.17;;;691.50;1356.80;;;;;;5513531;26;20017;-77
2024/04/28 10:25:33;;;;;;;9.23;3.40;;;;;;;;;;5482160;26;19995;-77
2024/04/28 10:27:59;;;;;;;6.03;2.90;;;;;;;;;;5475496;26;19998;-77
2024/04/28 10:30:25;;;;;;;6.38;3.38;;;;;;;;;;5491243;26;20026;-77
2024/04/28 10:33:04;;;;;;;4.10;2.60;;;;;;;;;;5489584;26;20348;-77
2024/04/28 10:35:35;;;;;;;4.13;2.60;;;691.80;1382.40;;;;;;5479299;26;20010;-77
2024/04/28 10:38:01;;;;;;;5.40;2.67;;;;;;;;;;5490710;26;20026;-77
2024/04/28 10:40:28;;;;;;;5.30;2.92;;;;;;;;;;5488272;26;19994;-77
2024/04/28 10:42:54;;;;;;;4.57;2.80;;;692.00;1305.60;;;;;;5490595;26;19994;-77
2024/04/28 10:45:20;;;;;;;7.88;2.70;;;;;;;;;;5493890;26;20460;-77
2024/04/28 10:47:46;;;;;;;5.63;2.78;;;691.70;1280.00;;;;;;5499896;26;20002;-76
2024/04/28 10:50:14;;;;;;;5.28;3.30;;;691.50;1305.60;;;;;;5499922;26;19995;-75
2024/04/28 10:52:41;;;;;;;6.35;3.25;;;691.30;1331.20;;;;;;5503215;26;20520;-76
2024/04/28 10:55:08;;;;;;;4.95;3.30;;;691.40;1305.60;;;;;;5500700;26;20013;-76
2024/04/28 10:57:33;;;;;;;4.82;2.92;;;691.50;1305.60;;;;;;5452855;26;20387;-75
2024/04/28 10:59:59;;;;;;;3.63;2.50;;;;;;;;;;5496068;26;20002;-77
2024/04/28 11:02:26;;;;;;;8.00;3.80;;;;;;;;;;5492677;26;20349;-77
2024/04/28 11:04:52;;;;;;;4.55;2.80;;;;;;;;;;5484657;26;20518;-75
2024/04/28 11:07:18;;;;;;;4.20;2.40;;;;;;;;;;5467919;26;20028;-75
2024/04/28 11:09:44;;;;;;;7.28;3.88;;;691.80;1254.40;;;;;;5526572;26;20203;-73
2024/04/28 11:12:10;;;;;;;7.43;3.42;;;691.70;1280.00;;;;;;5486407;26;20319;-76
2024/04/28 11:14:36;;;;;;;5.53;2.40;;;691.70;1280.00;;;;;;5456921;26;19995;-78
2024/04/28 11:17:03;;;;;;;4.63;3.03;;;691.80;1228.80;;;;;;5463275;26;19998;-75
2024/04/28 11:19:29;;;;;;;4.53;3.42;;;691.70;1254.40;;;;;;5493291;26;20027;-76
2024/04/28 11:21:55;;;;;;;5.30;3.00;;;691.80;1280.00;;;;;;5493639;26;20046;-76
2024/04/28 11:24:20;;;;;;;6.65;2.50;;;691.70;1228.80;;;;;;5495075;26;19998;-75
2024/04/28 11:26:50;;;;;;;5.13;2.67;;;691.60;1254.40;;;;;;5475244;26;19999;-75
2024/04/28 11:29:15;;;;;;;4.03;2.78;;;691.90;1228.80;;;;;;5486149;26;20030;-75
2024/04/28 11:31:41;;;;;;;3.05;2.00;;;692.00;1228.80;;;;;;5476194;26;20006;-76
2024/04/28 11:34:08;;;;;;;5.28;2.75;;;691.60;1254.40;;;;;;5475000;26;20002;-75
2024/04/28 11:36:33;;;;;;;5.03;2.58;;;691.60;1228.80;;;;;;5517218;26;19993;-75
2024/04/28 11:39:00;;;;;;;6.35;2.72;;;691.90;1228.80;;;;;;5529977;26;19998;-75
2024/04/28 11:41:25;;;;;;;5.35;2.53;;;717.10;1228.80;;;;;;5461053;26;20542;-75
2024/04/28 11:43:51;;;;;;;6.43;3.20;;;692.10;1177.60;;;;;;5488068;26;20014;-76
2024/04/28 11:46:17;;;;;;;4.28;2.53;;;716.80;1203.20;;;;;;5456127;26;19991;-75
2024/04/28 11:48:43;;;;;;;4.60;3.08;;;716.80;1228.80;;;;;;5456801;26;20003;-75
2024/04/28 11:51:09;;;;;;;4.47;2.50;;;717.00;1228.80;;;;;;5458145;26;19994;-76
2024/04/28 11:53:38;;;;;;;4.95;2.28;;;717.30;1228.80;;;;;;5478904;26;20449;-76
2024/04/28 11:56:04;;;;;;;6.97;2.45;;;716.90;1228.80;;;;;;5479403;26;19994;-75
2024/04/28 11:58:29;;;;;;;6.45;2.83;;;716.90;1254.40;;;;;;5494746;26;20005;-76
2024/04/28 12:00:55;;;;;;;5.40;2.40;;;717.00;1203.20;;;;;;5491929;26;20006;-76
2024/04/28 12:03:21;;;;;;;3.90;2.55;;;716.80;1280.00;;;;;;5486997;26;20006;-75
2024/04/28 12:05:47;;;;;;;6.97;3.00;;;692.00;1228.80;;;;;;5486844;26;19994;-73
2024/04/28 12:08:15;;;;;;;3.80;2.45;;;717.00;1254.40;;;;;;5469344;26;19998;-75
2024/04/28 12:10:42;;;;;;;9.25;4.63;;;717.30;1203.20;;;;;;5525498;26;20005;-75
2024/04/28 12:13:08;;;;;;;3.92;2.50;;;717.10;1228.80;;;;;;5527678;26;20002;-75
2024/04/28 12:15:34;;;;;;;3.63;2.35;;;717.00;1203.20;;;;;;5468416;26;20002;-75